createdAt,value
2023-02-17T00:00:20.116Z,31.19
2023-02-17T00:00:59.603Z,31.23
2023-02-17T00:01:39.041Z,31.19
2023-02-17T00:02:18.381Z,31.18
2023-02-17T00:02:57.686Z,31.23
2023-02-17T00:03:36.934Z,31.29
2023-02-17T00:04:15.597Z,31.20
2023-02-17T00:04:55.217Z,31.23
2023-02-17T00:05:35.583Z,31.31
2023-02-17T00:06:15.023Z,31.30
2023-02-17T00:06:54.527Z,31.27
2023-02-17T00:07:33.594Z,31.21
2023-02-17T00:08:11.962Z,31.14
2023-02-17T00:08:51.117Z,31.51
2023-02-17T00:09:30.520Z,31.26
2023-02-17T00:10:09.657Z,31.26
2023-02-17T00:10:50.100Z,31.27
2023-02-17T00:11:28.690Z,31.27
2023-02-17T00:12:07.529Z,31.27
2023-02-17T00:12:46.556Z,31.18
2023-02-17T00:13:25.295Z,31.02
2023-02-17T00:14:03.918Z,31.17
2023-02-17T00:14:43.024Z,31.24
2023-02-17T00:15:20.813Z,31.18
2023-02-17T00:16:00.255Z,30.97
2023-02-17T00:16:38.896Z,31.22
2023-02-17T00:17:18.482Z,31.19
2023-02-17T00:17:57.559Z,31.16
2023-02-17T00:18:35.849Z,31.11
2023-02-17T00:19:17.147Z,31.34
2023-02-17T00:19:56.235Z,31.15
2023-02-17T00:20:34.902Z,31.04
2023-02-17T00:21:14.334Z,31.15
2023-02-17T00:21:52.657Z,31.19
2023-02-17T00:22:31.636Z,31.15
2023-02-17T00:23:09.845Z,31.28
2023-02-17T00:23:48.413Z,31.13
2023-02-17T00:24:26.700Z,31.34
2023-02-17T00:25:05.600Z,31.13
2023-02-17T00:25:45.040Z,31.20
2023-02-17T00:26:24.593Z,31.25
2023-02-17T00:27:04.149Z,31.17
2023-02-17T00:27:44.385Z,31.17
2023-02-17T00:28:23.102Z,31.21
2023-02-17T00:29:02.521Z,31.30
2023-02-17T00:29:41.760Z,31.08
2023-02-17T00:30:21.114Z,31.26
2023-02-17T00:31:00.099Z,31.30
2023-02-17T00:31:39.182Z,31.29
2023-02-17T00:32:18.387Z,31.21
2023-02-17T00:32:57.190Z,31.29
2023-02-17T00:33:35.522Z,31.29
2023-02-17T00:34:13.473Z,31.48
2023-02-17T00:34:52.695Z,31.31
2023-02-17T00:35:31.853Z,31.21
2023-02-17T00:36:11.525Z,31.31
2023-02-17T00:36:50.695Z,31.49
2023-02-17T00:37:29.854Z,31.28
2023-02-17T00:38:08.818Z,31.34
2023-02-17T00:38:47.362Z,31.49
2023-02-17T00:39:26.032Z,31.42
2023-02-17T00:40:04.703Z,31.37
2023-02-17T00:40:42.877Z,31.40
2023-02-17T00:41:21.426Z,31.37
2023-02-17T00:41:59.980Z,31.19
2023-02-17T00:42:38.292Z,31.31
2023-02-17T00:43:16.589Z,31.39
2023-02-17T00:43:54.046Z,31.24
2023-02-17T00:44:32.839Z,31.42
2023-02-17T00:45:12.032Z,31.34
2023-02-17T00:45:51.230Z,31.29
2023-02-17T00:46:30.552Z,31.19
2023-02-17T00:47:09.852Z,31.34
2023-02-17T00:47:49.206Z,31.21
2023-02-17T00:48:28.888Z,31.46
2023-02-17T00:49:07.384Z,31.39
2023-02-17T00:49:45.445Z,31.21
2023-02-17T00:50:23.681Z,31.26
2023-02-17T00:51:02.309Z,31.37
2023-02-17T00:51:41.868Z,31.34
2023-02-17T00:52:19.855Z,31.33
2023-02-17T00:52:58.776Z,31.29
2023-02-17T00:53:36.632Z,31.39
2023-02-17T00:54:14.741Z,31.41
2023-02-17T00:54:52.458Z,31.34
2023-02-17T00:55:31.211Z,31.39
2023-02-17T00:56:10.685Z,31.51
2023-02-17T00:56:50.014Z,31.49
2023-02-17T00:57:29.515Z,31.48
2023-02-17T00:58:08.827Z,31.40
2023-02-17T00:58:47.805Z,31.43
2023-02-17T00:59:26.043Z,31.45
2023-02-17T01:00:04.346Z,31.47
2023-02-17T01:00:42.900Z,31.42
2023-02-17T01:01:21.254Z,31.28
2023-02-17T01:02:00.473Z,31.26
2023-02-17T01:02:39.885Z,31.27
2023-02-17T01:03:18.592Z,31.44
2023-02-17T01:03:57.001Z,31.23
2023-02-17T01:04:35.132Z,31.34
2023-02-17T01:05:15.602Z,31.25
2023-02-17T01:05:54.587Z,31.26
2023-02-17T01:06:33.959Z,31.20
2023-02-17T01:07:13.694Z,31.52
2023-02-17T01:07:52.876Z,31.36
2023-02-17T01:08:32.007Z,31.35
2023-02-17T01:09:10.426Z,31.50
2023-02-17T01:09:49.095Z,31.41
2023-02-17T01:10:27.867Z,31.41
2023-02-17T01:11:07.092Z,31.44
2023-02-17T01:11:45.052Z,31.58
2023-02-17T01:12:24.504Z,31.52
2023-02-17T01:13:03.098Z,31.53
2023-02-17T01:13:42.194Z,31.49
2023-02-17T01:14:20.029Z,31.46
2023-02-17T01:14:58.480Z,31.51
2023-02-17T01:15:37.332Z,31.41
2023-02-17T01:16:16.962Z,31.31
2023-02-17T01:16:56.729Z,31.36
2023-02-17T01:17:36.253Z,31.31
2023-02-17T01:18:15.755Z,31.31
2023-02-17T01:18:55.723Z,31.42
2023-02-17T01:19:33.991Z,31.47
2023-02-17T01:20:13.158Z,31.43
2023-02-17T01:20:52.664Z,31.46
2023-02-17T01:21:31.818Z,31.54
2023-02-17T01:22:09.855Z,31.39
2023-02-17T01:22:49.657Z,31.33
2023-02-17T01:23:28.152Z,31.36
2023-02-17T01:24:07.834Z,31.48
2023-02-17T01:24:46.110Z,31.55
2023-02-17T01:25:24.747Z,31.53
2023-02-17T01:26:03.642Z,31.36
2023-02-17T01:26:42.274Z,31.36
2023-02-17T01:27:20.720Z,31.45
2023-02-17T01:27:59.597Z,31.20
2023-02-17T01:28:38.264Z,31.40
2023-02-17T01:29:15.228Z,31.59
2023-02-17T01:29:53.836Z,31.41
2023-02-17T01:30:32.594Z,31.46
2023-02-17T01:31:12.078Z,31.37
2023-02-17T01:31:52.338Z,31.25
2023-02-17T01:32:31.917Z,31.41
2023-02-17T01:33:11.503Z,31.50
2023-02-17T01:33:50.767Z,31.50
2023-02-17T01:34:29.513Z,31.47
2023-02-17T01:35:08.573Z,31.38
2023-02-17T01:35:48.571Z,31.38
2023-02-17T01:36:28.401Z,31.34
2023-02-17T01:37:07.841Z,31.34
2023-02-17T01:37:47.506Z,31.26
2023-02-17T01:38:28.063Z,31.23
2023-02-17T01:39:08.228Z,31.35
2023-02-17T01:39:47.722Z,31.43
2023-02-17T01:40:26.652Z,31.19
2023-02-17T01:41:05.619Z,31.33
2023-02-17T01:41:45.036Z,31.34
2023-02-17T01:42:24.601Z,31.25
2023-02-17T01:43:03.892Z,31.26
2023-02-17T01:43:43.462Z,31.51
2023-02-17T01:44:23.307Z,31.19
2023-02-17T01:45:01.456Z,31.40
2023-02-17T01:45:38.853Z,31.46
2023-02-17T01:46:18.914Z,31.54
2023-02-17T01:46:57.624Z,31.34
2023-02-17T01:47:36.168Z,31.31
2023-02-17T01:48:15.777Z,31.42
2023-02-17T01:48:54.003Z,31.31
2023-02-17T01:49:32.646Z,31.29
2023-02-17T01:50:11.121Z,31.44
2023-02-17T01:50:49.315Z,31.36
2023-02-17T01:51:29.062Z,31.46
2023-02-17T01:52:08.295Z,31.42
2023-02-17T01:52:47.873Z,31.55
2023-02-17T01:53:27.394Z,31.52
2023-02-17T01:54:06.712Z,31.47
2023-02-17T01:54:45.984Z,31.59
2023-02-17T01:55:24.101Z,31.34
2023-02-17T01:56:02.612Z,31.46
2023-02-17T01:56:41.804Z,31.34
2023-02-17T01:57:20.518Z,31.29
2023-02-17T01:58:00.291Z,31.46
2023-02-17T01:58:39.478Z,31.40
2023-02-17T01:59:18.418Z,31.50
2023-02-17T01:59:58.778Z,31.38
2023-02-17T02:00:36.749Z,31.49
2023-02-17T02:01:14.946Z,31.51
2023-02-17T02:01:54.355Z,31.51
2023-02-17T02:02:32.817Z,31.48
2023-02-17T02:03:11.498Z,31.55
2023-02-17T02:03:50.126Z,31.54
2023-02-17T02:04:30.227Z,31.56
2023-02-17T02:05:08.978Z,31.58
2023-02-17T02:05:46.942Z,31.62
2023-02-17T02:06:25.356Z,31.51
2023-02-17T02:07:03.826Z,31.54
2023-02-17T02:07:42.559Z,31.54
2023-02-17T02:08:22.721Z,31.55
2023-02-17T02:09:01.331Z,31.66
2023-02-17T02:09:40.002Z,31.50
2023-02-17T02:10:19.051Z,31.36
2023-02-17T02:10:57.113Z,31.45
2023-02-17T02:11:35.662Z,31.51
2023-02-17T02:12:14.200Z,31.44
2023-02-17T02:12:53.918Z,31.59
2023-02-17T02:13:32.604Z,31.55
2023-02-17T02:14:12.173Z,31.38
2023-02-17T02:14:50.902Z,31.38
2023-02-17T02:15:33.285Z,31.64
2023-02-17T02:16:11.957Z,31.46
2023-02-17T02:16:50.522Z,31.63
2023-02-17T02:17:30.203Z,31.36
2023-02-17T02:18:10.111Z,31.45
2023-02-17T02:18:49.491Z,31.59
2023-02-17T02:19:28.776Z,31.68
2023-02-17T02:20:08.171Z,31.34
2023-02-17T02:20:46.792Z,31.60
2023-02-17T02:21:24.453Z,31.68
2023-02-17T02:22:02.495Z,31.69
2023-02-17T02:22:41.208Z,31.67
2023-02-17T02:23:20.778Z,31.68
2023-02-17T02:23:59.745Z,31.51
2023-02-17T02:24:38.370Z,31.63
2023-02-17T02:25:17.980Z,31.47
2023-02-17T02:25:56.395Z,31.64
2023-02-17T02:26:35.374Z,31.65
2023-02-17T02:27:14.291Z,31.60
2023-02-17T02:27:53.662Z,31.57
2023-02-17T02:28:33.807Z,31.52
2023-02-17T02:29:14.419Z,31.52
2023-02-17T02:29:54.025Z,31.60
2023-02-17T02:30:33.524Z,31.65
2023-02-17T02:31:13.728Z,31.51
2023-02-17T02:31:52.979Z,31.67
2023-02-17T02:32:31.518Z,31.60
2023-02-17T02:33:10.999Z,31.64
2023-02-17T02:33:50.554Z,31.61
2023-02-17T02:34:30.980Z,31.44
2023-02-17T02:35:10.532Z,31.50
2023-02-17T02:35:49.850Z,31.58
2023-02-17T02:36:28.641Z,31.60
2023-02-17T02:37:07.930Z,31.41
2023-02-17T02:37:46.868Z,31.45
2023-02-17T02:38:26.552Z,31.71
2023-02-17T02:39:06.663Z,31.60
2023-02-17T02:39:46.009Z,31.61
2023-02-17T02:40:24.700Z,31.51
2023-02-17T02:41:03.793Z,31.64
2023-02-17T02:41:43.203Z,31.66
2023-02-17T02:42:21.750Z,31.61
2023-02-17T02:43:00.332Z,31.67
2023-02-17T02:43:39.580Z,31.53
2023-02-17T02:44:17.956Z,31.72
2023-02-17T02:44:56.429Z,31.54
2023-02-17T02:45:35.058Z,31.57
2023-02-17T02:46:13.559Z,31.70
2023-02-17T02:46:53.152Z,31.55
2023-02-17T02:47:31.275Z,31.46
2023-02-17T02:48:09.996Z,31.58
2023-02-17T02:48:48.490Z,31.69
2023-02-17T02:49:27.787Z,31.67
2023-02-17T02:50:06.449Z,31.61
2023-02-17T02:50:45.596Z,31.62
2023-02-17T02:51:24.371Z,31.72
2023-02-17T02:52:03.782Z,31.67
2023-02-17T02:52:41.776Z,31.68
2023-02-17T02:53:20.322Z,31.78
2023-02-17T02:53:59.003Z,31.58
2023-02-17T02:54:38.311Z,31.51
2023-02-17T02:55:16.840Z,31.78
2023-02-17T02:55:56.400Z,31.62
2023-02-17T02:56:35.573Z,31.66
2023-02-17T02:57:15.053Z,31.67
2023-02-17T02:57:53.378Z,31.51
2023-02-17T02:58:32.524Z,31.70
2023-02-17T02:59:11.792Z,31.58
2023-02-17T02:59:51.077Z,31.69
2023-02-17T03:00:29.789Z,31.59
2023-02-17T03:01:09.274Z,31.76
2023-02-17T03:01:47.496Z,31.79
2023-02-17T03:02:26.834Z,31.63
2023-02-17T03:03:04.191Z,31.64
2023-02-17T03:03:42.183Z,31.75
2023-02-17T03:04:21.184Z,31.54
2023-02-17T03:05:00.619Z,31.59
2023-02-17T03:05:39.207Z,31.46
2023-02-17T03:06:18.235Z,31.46
2023-02-17T03:06:57.529Z,31.48
2023-02-17T03:07:36.738Z,31.62
2023-02-17T03:08:15.190Z,31.51
2023-02-17T03:08:53.836Z,31.66
2023-02-17T03:09:32.747Z,31.44
2023-02-17T03:10:10.788Z,31.63
2023-02-17T03:10:49.300Z,31.69
2023-02-17T03:11:28.680Z,31.61
2023-02-17T03:12:08.141Z,31.58
2023-02-17T03:12:47.431Z,31.31
2023-02-17T03:13:26.390Z,31.50
2023-02-17T03:14:05.343Z,31.51
2023-02-17T03:14:44.616Z,31.34
2023-02-17T03:15:23.177Z,31.47
2023-02-17T03:16:01.812Z,31.51
2023-02-17T03:16:40.357Z,31.83
2023-02-17T03:17:18.965Z,31.85
2023-02-17T03:17:57.489Z,31.78
2023-02-17T03:18:35.929Z,31.51
2023-02-17T03:19:14.408Z,31.60
2023-02-17T03:19:53.031Z,31.80
2023-02-17T03:20:30.538Z,31.85
2023-02-17T03:21:08.847Z,31.60
2023-02-17T03:21:48.028Z,31.83
2023-02-17T03:22:31.116Z,31.65
2023-02-17T03:23:09.664Z,31.59
2023-02-17T03:23:48.804Z,31.78
2023-02-17T03:24:28.188Z,31.45
2023-02-17T03:25:08.116Z,31.70
2023-02-17T03:25:47.101Z,31.71
2023-02-17T03:26:25.787Z,31.76
2023-02-17T03:27:06.167Z,31.46
2023-02-17T03:27:44.666Z,31.68
2023-02-17T03:28:23.894Z,31.74
2023-02-17T03:29:02.634Z,31.68
2023-02-17T03:29:42.298Z,31.71
2023-02-17T03:30:21.384Z,31.56
2023-02-17T03:31:00.461Z,31.69
2023-02-17T03:31:39.182Z,31.71
2023-02-17T03:32:18.975Z,31.65
2023-02-17T03:32:57.688Z,31.67
2023-02-17T03:33:37.485Z,31.75
2023-02-17T03:34:16.333Z,31.67
2023-02-17T03:34:56.390Z,31.87
2023-02-17T03:35:34.392Z,31.71
2023-02-17T03:36:12.855Z,31.71
2023-02-17T03:36:50.872Z,31.67
2023-02-17T03:37:30.380Z,31.71
2023-02-17T03:38:09.884Z,31.65
2023-02-17T03:38:50.215Z,31.54
2023-02-17T03:39:29.329Z,31.78
2023-02-17T03:40:09.933Z,31.70
2023-02-17T03:40:48.685Z,31.38
2023-02-17T03:41:27.523Z,31.74
2023-02-17T03:42:07.038Z,31.66
2023-02-17T03:42:47.595Z,31.66
2023-02-17T03:43:28.161Z,31.64
2023-02-17T03:44:07.163Z,31.74
2023-02-17T03:44:49.982Z,31.66
2023-02-17T03:45:29.407Z,31.74
2023-02-17T03:46:09.567Z,31.68
2023-02-17T03:46:47.282Z,31.65
2023-02-17T03:47:26.131Z,31.52
2023-02-17T03:48:04.468Z,31.70
2023-02-17T03:48:43.857Z,31.73
2023-02-17T03:49:22.840Z,31.67
2023-02-17T03:50:02.522Z,31.79
2023-02-17T03:50:42.005Z,31.69
2023-02-17T03:51:21.591Z,31.55
2023-02-17T03:52:00.970Z,31.57
2023-02-17T03:52:39.371Z,31.58
2023-02-17T03:53:18.897Z,31.78
2023-02-17T03:53:57.870Z,31.57
2023-02-17T03:54:37.689Z,31.61
2023-02-17T03:55:18.207Z,31.72
2023-02-17T03:55:57.849Z,31.50
2023-02-17T03:56:37.140Z,31.64
2023-02-17T03:57:15.864Z,31.57
2023-02-17T03:57:54.377Z,31.66
2023-02-17T03:58:34.233Z,31.72
2023-02-17T03:59:14.460Z,31.70
2023-02-17T03:59:53.172Z,31.59
2023-02-17T04:00:33.163Z,31.73
2023-02-17T04:01:11.678Z,31.74
2023-02-17T04:01:50.848Z,31.70
2023-02-17T04:02:29.733Z,31.74
2023-02-17T04:03:09.050Z,31.59
2023-02-17T04:03:48.305Z,31.80
2023-02-17T04:04:27.115Z,31.83
2023-02-17T04:05:06.275Z,31.84
2023-02-17T04:05:45.097Z,31.75
2023-02-17T04:06:24.086Z,31.69
2023-02-17T04:07:04.632Z,31.76
2023-02-17T04:07:43.175Z,31.80
2023-02-17T04:08:21.724Z,31.74
2023-02-17T04:09:01.485Z,31.83
2023-02-17T04:09:40.954Z,31.71
2023-02-17T04:10:20.284Z,31.84
2023-02-17T04:10:59.921Z,31.66
2023-02-17T04:11:39.048Z,31.83
2023-02-17T04:12:17.804Z,31.78
2023-02-17T04:12:57.090Z,31.67
2023-02-17T04:13:38.570Z,31.59
2023-02-17T04:14:17.755Z,31.68
2023-02-17T04:14:56.604Z,31.59
2023-02-17T04:15:35.321Z,31.74
2023-02-17T04:16:14.584Z,31.66
2023-02-17T04:16:53.757Z,31.60
2023-02-17T04:17:34.052Z,31.58
2023-02-17T04:18:13.535Z,31.71
2023-02-17T04:18:51.787Z,31.71
2023-02-17T04:19:31.962Z,31.84
2023-02-17T04:20:12.258Z,31.66
2023-02-17T04:20:51.637Z,31.64
2023-02-17T04:21:30.804Z,31.48
2023-02-17T04:22:09.741Z,31.62
2023-02-17T04:22:48.798Z,31.61
2023-02-17T04:23:27.248Z,31.54
2023-02-17T04:24:05.847Z,31.69
2023-02-17T04:24:45.009Z,31.66
2023-02-17T04:25:23.842Z,31.84
2023-02-17T04:26:01.291Z,31.80
2023-02-17T04:26:39.648Z,31.65
2023-02-17T04:27:18.688Z,31.84
2023-02-17T04:27:58.260Z,31.79
2023-02-17T04:28:38.682Z,31.83
2023-02-17T04:29:18.017Z,31.69
2023-02-17T04:29:57.484Z,31.61
2023-02-17T04:30:37.376Z,31.65
2023-02-17T04:31:15.898Z,31.64
2023-02-17T04:31:54.922Z,31.78
2023-02-17T04:32:35.293Z,31.70
2023-02-17T04:33:15.697Z,31.64
2023-02-17T04:33:55.185Z,31.61
2023-02-17T04:34:34.521Z,31.56
2023-02-17T04:35:14.068Z,31.74
2023-02-17T04:35:52.182Z,31.61
2023-02-17T04:36:30.857Z,31.73
2023-02-17T04:37:10.284Z,31.55
2023-02-17T04:37:49.764Z,31.74
2023-02-17T04:38:29.793Z,31.73
2023-02-17T04:39:09.425Z,31.76
2023-02-17T04:39:48.464Z,31.49
2023-02-17T04:40:27.153Z,31.55
2023-02-17T04:41:06.412Z,31.69
2023-02-17T04:41:45.229Z,31.68
2023-02-17T04:42:25.128Z,31.73
2023-02-17T04:43:04.981Z,31.71
2023-02-17T04:43:44.370Z,31.74
2023-02-17T04:44:23.940Z,31.63
2023-02-17T04:45:03.296Z,31.73
2023-02-17T04:45:42.815Z,31.78
2023-02-17T04:46:20.842Z,31.76
2023-02-17T04:46:58.968Z,31.67
2023-02-17T04:47:37.474Z,31.70
2023-02-17T04:48:16.625Z,31.64
2023-02-17T04:48:55.575Z,31.73
2023-02-17T04:49:34.178Z,31.94
2023-02-17T04:50:12.675Z,31.76
2023-02-17T04:50:51.175Z,31.60
2023-02-17T04:51:29.155Z,31.64
2023-02-17T04:52:08.062Z,31.71
2023-02-17T04:52:47.295Z,31.76
2023-02-17T04:53:26.697Z,31.78
2023-02-17T04:54:06.238Z,31.78
2023-02-17T04:54:45.182Z,31.71
2023-02-17T04:55:25.171Z,31.68
2023-02-17T04:56:04.470Z,31.65
2023-02-17T04:56:43.258Z,31.67
2023-02-17T04:57:21.729Z,31.63
2023-02-17T04:58:01.497Z,31.72
2023-02-17T04:58:40.690Z,31.67
2023-02-17T04:59:19.445Z,31.48
2023-02-17T04:59:59.548Z,31.62
2023-02-17T05:00:38.144Z,31.63
2023-02-17T05:01:16.993Z,31.70
2023-02-17T05:01:55.857Z,31.68
2023-02-17T05:02:34.389Z,31.55
2023-02-17T05:03:13.657Z,31.63
2023-02-17T05:03:52.615Z,31.58
2023-02-17T05:04:31.419Z,31.55
2023-02-17T05:05:10.531Z,31.80
2023-02-17T05:05:49.358Z,31.68
2023-02-17T05:06:27.941Z,31.72
2023-02-17T05:07:06.802Z,31.83
2023-02-17T05:07:45.656Z,31.75
2023-02-17T05:08:25.362Z,31.71
2023-02-17T05:09:05.530Z,31.63
2023-02-17T05:09:44.809Z,31.77
2023-02-17T05:10:24.333Z,31.58
2023-02-17T05:11:03.641Z,31.58
2023-02-17T05:11:43.006Z,31.61
2023-02-17T05:12:20.807Z,31.68
2023-02-17T05:12:59.613Z,31.79
2023-02-17T05:13:37.731Z,31.56
2023-02-17T05:14:16.974Z,31.48
2023-02-17T05:14:55.953Z,31.56
2023-02-17T05:15:36.312Z,31.74
2023-02-17T05:16:15.432Z,31.75
2023-02-17T05:16:54.997Z,31.58
2023-02-17T05:17:33.671Z,31.74
2023-02-17T05:18:12.253Z,31.83
2023-02-17T05:18:51.794Z,31.65
2023-02-17T05:19:31.380Z,31.67
2023-02-17T05:20:11.667Z,31.66
2023-02-17T05:20:50.493Z,31.69
2023-02-17T05:21:30.173Z,31.79
2023-02-17T05:22:08.996Z,31.82
2023-02-17T05:22:47.803Z,31.75
2023-02-17T05:23:25.737Z,31.74
2023-02-17T05:24:05.223Z,31.70
2023-02-17T05:24:44.513Z,31.67
2023-02-17T05:25:23.634Z,31.61
2023-02-17T05:26:02.996Z,31.74
2023-02-17T05:26:42.490Z,31.51
2023-02-17T05:27:22.312Z,31.63
2023-02-17T05:28:01.395Z,31.77
2023-02-17T05:28:40.583Z,31.70
2023-02-17T05:29:20.918Z,31.76
2023-02-17T05:30:00.799Z,31.81
2023-02-17T05:30:40.926Z,31.75
2023-02-17T05:31:19.988Z,31.56
2023-02-17T05:31:59.346Z,31.75
2023-02-17T05:32:38.427Z,31.56
2023-02-17T05:33:17.305Z,31.63
2023-02-17T05:33:55.856Z,31.77
2023-02-17T05:34:35.779Z,31.78
2023-02-17T05:35:15.507Z,31.81
2023-02-17T05:35:55.219Z,31.62
2023-02-17T05:36:35.032Z,31.66
2023-02-17T05:37:13.761Z,31.66
2023-02-17T05:37:53.102Z,31.56
2023-02-17T05:38:31.181Z,31.63
2023-02-17T05:39:09.778Z,31.46
2023-02-17T05:39:48.095Z,31.59
2023-02-17T05:40:28.128Z,31.78
2023-02-17T05:41:06.817Z,31.77
2023-02-17T05:41:46.149Z,31.71
2023-02-17T05:42:25.194Z,31.59
2023-02-17T05:43:04.449Z,31.71
2023-02-17T05:43:42.234Z,31.58
2023-02-17T05:44:20.682Z,31.70
2023-02-17T05:44:59.487Z,31.56
2023-02-17T05:45:39.062Z,31.80
2023-02-17T05:46:18.315Z,31.60
2023-02-17T05:46:57.648Z,31.58
2023-02-17T05:47:37.086Z,31.74
2023-02-17T05:48:16.890Z,31.63
2023-02-17T05:48:55.709Z,31.54
2023-02-17T05:49:34.177Z,31.74
2023-02-17T05:50:14.295Z,31.64
2023-02-17T05:50:53.564Z,31.55
2023-02-17T05:51:32.849Z,31.68
2023-02-17T05:52:13.240Z,31.70
2023-02-17T05:52:52.581Z,31.84
2023-02-17T05:53:32.246Z,31.73
2023-02-17T05:54:11.994Z,31.99
2023-02-17T05:54:50.806Z,31.65
2023-02-17T05:55:29.428Z,31.74
2023-02-17T05:56:08.869Z,31.81
2023-02-17T05:56:47.948Z,31.81
2023-02-17T05:57:25.510Z,31.91
2023-02-17T05:58:04.514Z,31.74
2023-02-17T05:58:43.770Z,31.62
2023-02-17T05:59:22.765Z,31.79
2023-02-17T06:00:03.170Z,31.54
2023-02-17T06:00:42.513Z,31.70
2023-02-17T06:01:22.583Z,31.56
2023-02-17T06:02:00.997Z,31.68
2023-02-17T06:02:40.012Z,31.74
2023-02-17T06:03:19.376Z,31.56
2023-02-17T06:03:58.536Z,31.77
2023-02-17T06:04:38.416Z,31.80
2023-02-17T06:05:17.795Z,31.55
2023-02-17T06:05:56.948Z,31.76
2023-02-17T06:06:36.052Z,31.68
2023-02-17T06:07:15.458Z,31.40
2023-02-17T06:07:54.087Z,31.67
2023-02-17T06:08:33.505Z,31.76
2023-02-17T06:09:12.574Z,31.66
2023-02-17T06:09:51.758Z,31.74
2023-02-17T06:10:31.234Z,31.75
2023-02-17T06:11:10.878Z,31.74
2023-02-17T06:11:50.462Z,31.73
2023-02-17T06:12:28.341Z,31.75
2023-02-17T06:13:06.753Z,31.53
2023-02-17T06:13:45.399Z,31.55
2023-02-17T06:14:24.648Z,31.77
2023-02-17T06:15:02.964Z,31.58
2023-02-17T06:15:42.701Z,31.70
2023-02-17T06:16:21.828Z,31.73
2023-02-17T06:17:01.267Z,31.82
2023-02-17T06:17:40.267Z,31.68
2023-02-17T06:18:18.956Z,31.69
2023-02-17T06:18:58.524Z,31.50
2023-02-17T06:19:39.035Z,31.55
2023-02-17T06:20:19.224Z,31.58
2023-02-17T06:20:58.899Z,31.71
2023-02-17T06:21:38.132Z,31.68
2023-02-17T06:22:18.677Z,31.65
2023-02-17T06:22:56.272Z,31.51
2023-02-17T06:23:34.764Z,31.69
2023-02-17T06:24:14.434Z,31.75
2023-02-17T06:24:53.584Z,31.75
2023-02-17T06:25:32.917Z,31.60
2023-02-17T06:26:12.434Z,31.76
2023-02-17T06:26:51.608Z,31.68
2023-02-17T06:27:30.756Z,31.76
2023-02-17T06:28:09.942Z,31.77
2023-02-17T06:28:48.644Z,31.82
2023-02-17T06:29:28.011Z,31.92
2023-02-17T06:30:07.313Z,31.75
2023-02-17T06:30:47.064Z,31.94
2023-02-17T06:31:26.348Z,31.77
2023-02-17T06:32:05.955Z,31.86
2023-02-17T06:32:45.792Z,31.85
2023-02-17T06:33:24.909Z,31.95
2023-02-17T06:34:05.421Z,31.87
2023-02-17T06:34:43.775Z,31.75
2023-02-17T06:35:22.940Z,31.73
2023-02-17T06:36:02.493Z,31.81
2023-02-17T06:36:42.071Z,31.89
2023-02-17T06:37:21.507Z,31.93
2023-02-17T06:38:00.189Z,31.84
2023-02-17T06:38:39.003Z,31.83
2023-02-17T06:39:17.360Z,31.90
2023-02-17T06:39:57.080Z,31.58
2023-02-17T06:40:36.257Z,31.92
2023-02-17T06:41:14.785Z,31.89
2023-02-17T06:41:53.818Z,31.77
2023-02-17T06:42:32.715Z,31.91
2023-02-17T06:43:12.500Z,31.85
2023-02-17T06:43:50.834Z,31.92
2023-02-17T06:44:29.477Z,31.85
2023-02-17T06:45:09.485Z,31.72
2023-02-17T06:45:49.620Z,31.94
2023-02-17T06:46:28.859Z,31.94
2023-02-17T06:47:08.600Z,31.85
2023-02-17T06:47:48.214Z,31.98
2023-02-17T06:48:26.526Z,31.77
2023-02-17T06:49:05.550Z,31.92
2023-02-17T06:49:44.902Z,31.90
2023-02-17T06:50:23.660Z,31.91
2023-02-17T06:51:03.071Z,32.04
2023-02-17T06:51:42.041Z,31.76
2023-02-17T06:52:20.973Z,31.82
2023-02-17T06:52:58.693Z,31.90
2023-02-17T06:53:37.090Z,31.71
2023-02-17T06:54:16.575Z,32.01
2023-02-17T06:54:54.933Z,31.93
2023-02-17T06:55:32.809Z,31.92
2023-02-17T06:56:12.246Z,31.85
2023-02-17T06:56:50.911Z,31.89
2023-02-17T06:57:29.551Z,32.04
2023-02-17T06:58:08.771Z,31.84
2023-02-17T06:58:47.474Z,31.81
2023-02-17T06:59:26.851Z,31.91
2023-02-17T07:00:08.840Z,31.81
2023-02-17T07:00:47.835Z,31.92
2023-02-17T07:01:26.866Z,31.83
2023-02-17T07:02:07.197Z,31.85
2023-02-17T07:02:41.794Z,31.85
2023-02-17T07:03:21.136Z,31.75
2023-02-17T07:03:59.512Z,32.00
2023-02-17T07:04:38.716Z,31.94
2023-02-17T07:05:17.644Z,31.85
2023-02-17T07:05:56.236Z,31.93
2023-02-17T07:06:35.061Z,31.87
2023-02-17T07:07:14.405Z,31.95
2023-02-17T07:07:52.867Z,31.65
2023-02-17T07:08:32.450Z,31.61
2023-02-17T07:09:11.005Z,31.89
2023-02-17T07:09:50.240Z,31.74
2023-02-17T07:10:29.250Z,31.81
2023-02-17T07:11:08.413Z,31.79
2023-02-17T07:11:47.709Z,31.65
2023-02-17T07:12:26.765Z,31.78
2023-02-17T07:13:04.652Z,31.93
2023-02-17T07:13:43.200Z,31.80
2023-02-17T07:14:23.448Z,31.74
2023-02-17T07:15:02.053Z,31.76
2023-02-17T07:15:41.029Z,31.74
2023-02-17T07:16:20.184Z,31.75
2023-02-17T07:16:58.009Z,31.81
2023-02-17T07:17:37.380Z,31.87
2023-02-17T07:18:16.900Z,31.65
2023-02-17T07:18:55.230Z,31.94
2023-02-17T07:19:34.479Z,31.95
2023-02-17T07:20:13.625Z,31.89
2023-02-17T07:20:52.551Z,31.83
2023-02-17T07:21:32.295Z,32.06
2023-02-17T07:22:11.162Z,32.01
2023-02-17T07:22:50.162Z,31.97
2023-02-17T07:23:28.864Z,31.90
2023-02-17T07:24:07.459Z,31.82
2023-02-17T07:24:46.842Z,32.01
2023-02-17T07:25:25.508Z,31.82
2023-02-17T07:26:05.262Z,31.99
2023-02-17T07:26:44.041Z,31.92
2023-02-17T07:27:23.799Z,31.98
2023-02-17T07:28:03.042Z,32.03
2023-02-17T07:28:41.914Z,31.92
2023-02-17T07:29:20.505Z,31.84
2023-02-17T07:30:00.128Z,31.84
2023-02-17T07:30:39.774Z,31.95
2023-02-17T07:31:20.495Z,32.02
2023-02-17T07:32:00.324Z,31.94
2023-02-17T07:32:39.929Z,32.01
2023-02-17T07:33:18.884Z,31.79
2023-02-17T07:33:57.492Z,31.89
2023-02-17T07:34:36.433Z,31.75
2023-02-17T07:35:16.671Z,31.79
2023-02-17T07:35:55.389Z,31.81
2023-02-17T07:36:34.195Z,31.83
2023-02-17T07:37:13.180Z,31.87
2023-02-17T07:37:51.926Z,31.74
2023-02-17T07:38:30.836Z,31.78
2023-02-17T07:39:09.228Z,32.07
2023-02-17T07:39:48.600Z,31.91
2023-02-17T07:40:27.491Z,32.04
2023-02-17T07:41:06.829Z,31.68
2023-02-17T07:41:45.786Z,31.86
2023-02-17T07:42:25.555Z,31.81
2023-02-17T07:43:03.417Z,31.72
2023-02-17T07:43:40.629Z,31.83
2023-02-17T07:44:19.279Z,31.88
2023-02-17T07:44:57.861Z,31.83
2023-02-17T07:45:36.667Z,31.80
2023-02-17T07:46:18.630Z,31.80
2023-02-17T07:46:57.182Z,31.84
2023-02-17T07:47:39.063Z,31.96
2023-02-17T07:48:18.197Z,31.99
2023-02-17T07:48:56.148Z,31.83
2023-02-17T07:49:34.596Z,32.08
2023-02-17T07:50:14.197Z,32.03
2023-02-17T07:50:52.726Z,31.92
2023-02-17T07:51:31.533Z,31.98
2023-02-17T07:52:10.627Z,31.82
2023-02-17T07:52:49.851Z,32.02
2023-02-17T07:53:29.408Z,31.96
2023-02-17T07:54:08.952Z,31.98
2023-02-17T07:54:47.631Z,31.84
2023-02-17T07:55:27.114Z,32.00
2023-02-17T07:56:06.834Z,32.03
2023-02-17T07:56:46.937Z,32.02
2023-02-17T07:57:26.699Z,31.97
2023-02-17T07:58:05.317Z,31.91
2023-02-17T07:58:44.335Z,32.08
2023-02-17T07:59:23.159Z,32.07
2023-02-17T08:00:00.860Z,31.93
2023-02-17T08:00:40.294Z,31.91
2023-02-17T08:01:19.576Z,31.89
2023-02-17T08:01:58.301Z,31.99
2023-02-17T08:02:38.001Z,32.10
2023-02-17T08:03:17.054Z,32.05
2023-02-17T08:03:57.400Z,31.99
2023-02-17T08:04:35.937Z,31.90
2023-02-17T08:05:14.562Z,31.93
2023-02-17T08:05:52.991Z,31.94
2023-02-17T08:06:32.341Z,32.00
2023-02-17T08:07:11.329Z,31.94
2023-02-17T08:07:51.742Z,31.91
2023-02-17T08:08:30.436Z,32.01
2023-02-17T08:09:09.031Z,31.96
2023-02-17T08:09:47.864Z,32.05
2023-02-17T08:10:26.352Z,32.15
2023-02-17T08:11:05.408Z,32.10
2023-02-17T08:11:46.037Z,31.88
2023-02-17T08:12:24.326Z,32.02
2023-02-17T08:13:03.282Z,31.95
2023-02-17T08:13:43.744Z,31.94
2023-02-17T08:14:23.313Z,32.08
2023-02-17T08:15:02.292Z,31.96
2023-02-17T08:15:41.075Z,32.06
2023-02-17T08:16:20.437Z,31.97
2023-02-17T08:16:59.702Z,31.92
2023-02-17T08:17:38.860Z,32.07
2023-02-17T08:18:17.297Z,32.07
2023-02-17T08:18:56.518Z,32.06
2023-02-17T08:19:47.482Z,32.18
2023-02-17T08:20:25.437Z,32.09
2023-02-17T08:21:05.388Z,32.19
2023-02-17T08:21:44.437Z,32.09
2023-02-17T08:22:22.872Z,32.10
2023-02-17T08:23:01.319Z,31.94
2023-02-17T08:23:40.720Z,31.96